Back to Top

Language: 

My Weather Underground Personal Weather Station Historical Data with Graphs...

Delerius Weather Station Historical Data
Daily Summary for January 2, 2017 Units:  Both    English   Metric
« Previous Day
Next Day »
Daily Weekly Monthly Yearly Custom
  High: Low: Average:
Temperature: 41.5 °F /  5.3 °C 32.4 °F /  0.2 °C 35.9 °F /  2.2 °C
Dew Point: 35.3 °F /  1.8 °C 29.1 °F /  -1.6 °C 31.7 °F /  -0.2 °C
Humidity: 94 % 70 % 85 %
Wind Speed: 10.0 mph /  16.1 km/h - 5.3 mph /  8.5 km/h
Wind Gust: 13.0 mph /  20.9 km/h - -
Wind:- - NW
Pressure: 30.44 in /  1030.7 hPa 30.34 in /  1027.3 hPa -
Precipitation: 0.00 in /  0 mm    
Historical Graphs
 
 
Tabular Data for January 2, 2017
Time Temperature Dew Point Pressure Wind Wind Speed Wind Gust Humidity Rainfall Rate (Hourly) solar Conditions
00:00 37.0 °F /  2.8 °C 35.2 °F /  1.8 °C 30.34 in /  1027.3 hPa NNW 6.0 mph /  9.7 km/h 12.0 mph /  19.3 km/h 93 % 0.00 in /  0 mm 0 W/m2
00:05 37.1 °F /  2.8 °C 35.3 °F /  1.8 °C 30.34 in /  1027.3 hPa NNW 5.0 mph /  8 km/h 12.0 mph /  19.3 km/h 93 % 0.00 in /  0 mm 0 W/m2
00:15 37.4 °F /  3 °C 35.3 °F /  1.8 °C 30.34 in /  1027.3 hPa North 3.0 mph /  4.8 km/h 4.0 mph /  6.4 km/h 92 % 0.00 in /  0 mm 0 W/m2
00:20 37.4 °F /  3 °C 35.3 °F /  1.8 °C 30.34 in /  1027.3 hPa North 1.0 mph /  1.6 km/h 1.0 mph /  1.6 km/h 92 % 0.00 in /  0 mm 0 W/m2
00:25 37.4 °F /  3 °C 35.3 °F /  1.8 °C 30.34 in /  1027.3 hPa North 1.0 mph /  1.6 km/h 1.0 mph /  1.6 km/h 92 % 0.00 in /  0 mm 0 W/m2
00:30 37.3 °F /  2.9 °C 35.2 °F /  1.8 °C 30.34 in /  1027.3 hPa North 1.0 mph /  1.6 km/h 1.0 mph /  1.6 km/h 92 % 0.00 in /  0 mm 0 W/m2
00:35 37.2 °F /  2.9 °C 34.8 °F /  1.6 °C 30.34 in /  1027.3 hPa North 1.0 mph /  1.6 km/h 1.0 mph /  1.6 km/h 91 % 0.00 in /  0 mm 0 W/m2
00:40 37.0 °F /  2.8 °C 34.6 °F /  1.4 °C 30.34 in /  1027.3 hPa Calm     91 % 0.00 in /  0 mm 0 W/m2
00:45 36.8 °F /  2.7 °C 34.4 °F /  1.3 °C 30.34 in /  1027.3 hPa Calm   2.0 mph /  3.2 km/h 91 % 0.00 in /  0 mm 0 W/m2
00:50 36.6 °F /  2.6 °C 34.2 °F /  1.2 °C 30.34 in /  1027.3 hPa NNW 1.0 mph /  1.6 km/h 1.0 mph /  1.6 km/h 91 % 0.00 in /  0 mm 0 W/m2
01:00 36.3 °F /  2.4 °C 34.2 °F /  1.2 °C 30.34 in /  1027.3 hPa WNW 1.0 mph /  1.6 km/h 5.0 mph /  8 km/h 92 % 0.00 in /  0 mm 0 W/m2
01:05 36.3 °F /  2.4 °C 34.2 °F /  1.2 °C 30.34 in /  1027.3 hPa WNW 2.0 mph /  3.2 km/h 10.0 mph /  16.1 km/h 92 % 0.00 in /  0 mm 0 W/m2
01:10 36.2 °F /  2.3 °C 34.4 °F /  1.3 °C 30.34 in /  1027.3 hPa WNW 2.0 mph /  3.2 km/h 2.0 mph /  3.2 km/h 93 % 0.00 in /  0 mm 0 W/m2
01:15 36.1 °F /  2.3 °C 34.3 °F /  1.3 °C 30.34 in /  1027.3 hPa NW 2.0 mph /  3.2 km/h 5.0 mph /  8 km/h 93 % 0.00 in /  0 mm 0 W/m2
01:20 36.2 °F /  2.3 °C 34.4 °F /  1.3 °C 30.34 in /  1027.3 hPa NNW 4.0 mph /  6.4 km/h 10.0 mph /  16.1 km/h 93 % 0.00 in /  0 mm 0 W/m2
01:25 36.2 °F /  2.3 °C 34.4 °F /  1.3 °C 30.35 in /  1027.7 hPa NNW 4.0 mph /  6.4 km/h 10.0 mph /  16.1 km/h 93 % 0.00 in /  0 mm 0 W/m2
01:35 36.1 °F /  2.3 °C 34.3 °F /  1.3 °C 30.35 in /  1027.7 hPa WNW 3.0 mph /  4.8 km/h 10.0 mph /  16.1 km/h 93 % 0.00 in /  0 mm 0 W/m2
01:40 35.9 °F /  2.2 °C 33.8 °F /  1 °C 30.36 in /  1028 hPa NW 5.0 mph /  8 km/h 10.0 mph /  16.1 km/h 92 % 0.00 in /  0 mm 0 W/m2
01:45 35.7 °F /  2.1 °C 33.6 °F /  0.9 °C 30.36 in /  1028 hPa NW 6.0 mph /  9.7 km/h 10.0 mph /  16.1 km/h 92 % 0.00 in /  0 mm 0 W/m2
01:50 35.4 °F /  1.9 °C 33.6 °F /  0.9 °C 30.36 in /  1028 hPa NW 5.0 mph /  8 km/h 10.0 mph /  16.1 km/h 93 % 0.00 in /  0 mm 0 W/m2
01:55 35.3 °F /  1.8 °C 33.5 °F /  0.8 °C 30.36 in /  1028 hPa WNW 4.0 mph /  6.4 km/h 10.0 mph /  16.1 km/h 93 % 0.00 in /  0 mm 0 W/m2
02:00 35.2 °F /  1.8 °C 33.4 °F /  0.8 °C 30.36 in /  1028 hPa NW 5.0 mph /  8 km/h 5.0 mph /  8 km/h 93 % 0.00 in /  0 mm 0 W/m2
02:10 34.9 °F /  1.6 °C 33.1 °F /  0.6 °C 30.36 in /  1028 hPa NW 2.0 mph /  3.2 km/h 10.0 mph /  16.1 km/h 93 % 0.00 in /  0 mm 0 W/m2
02:15 34.8 °F /  1.6 °C 33.0 °F /  0.6 °C 30.37 in /  1028.3 hPa NW 4.0 mph /  6.4 km/h 10.0 mph /  16.1 km/h 93 % 0.00 in /  0 mm 0 W/m2
02:20 34.8 °F /  1.6 °C 33.0 °F /  0.6 °C 30.36 in /  1028 hPa WNW 6.0 mph /  9.7 km/h 6.0 mph /  9.7 km/h 93 % 0.00 in /  0 mm 0 W/m2
02:25 34.6 °F /  1.4 °C 32.8 °F /  0.4 °C 30.36 in /  1028 hPa WNW 5.0 mph /  8 km/h 10.0 mph /  16.1 km/h 93 % 0.00 in /  0 mm 0 W/m2
02:30 34.5 °F /  1.4 °C 32.7 °F /  0.4 °C 30.36 in /  1028 hPa NW 4.0 mph /  6.4 km/h 10.0 mph /  16.1 km/h 93 % 0.00 in /  0 mm 0 W/m2
02:35 34.5 °F /  1.4 °C 32.7 °F /  0.4 °C 30.37 in /  1028.3 hPa NW 4.0 mph /  6.4 km/h 10.0 mph /  16.1 km/h 93 % 0.00 in /  0 mm 0 W/m2
02:40 34.5 °F /  1.4 °C 33.0 °F /  0.6 °C 30.38 in /  1028.7 hPa WNW 5.0 mph /  8 km/h 10.0 mph /  16.1 km/h 94 % 0.00 in /  0 mm 0 W/m2
02:50 34.5 °F /  1.4 °C 33.0 °F /  0.6 °C 30.37 in /  1028.3 hPa NNW 6.0 mph /  9.7 km/h 10.0 mph /  16.1 km/h 94 % 0.00 in /  0 mm 0 W/m2
02:55 34.7 °F /  1.5 °C 33.2 °F /  0.7 °C 30.37 in /  1028.3 hPa NW 5.0 mph /  8 km/h 10.0 mph /  16.1 km/h 94 % 0.00 in /  0 mm 0 W/m2
03:00 34.7 °F /  1.5 °C 32.9 °F /  0.5 °C 30.38 in /  1028.7 hPa NW 4.0 mph /  6.4 km/h 10.0 mph /  16.1 km/h 93 % 0.00 in /  0 mm 0 W/m2
03:05 34.7 °F /  1.5 °C 32.9 °F /  0.5 °C 30.38 in /  1028.7 hPa NW 5.0 mph /  8 km/h 10.0 mph /  16.1 km/h 93 % 0.00 in /  0 mm 0 W/m2
03:10 34.7 °F /  1.5 °C 32.9 °F /  0.5 °C 30.38 in /  1028.7 hPa NW 5.0 mph /  8 km/h 5.0 mph /  8 km/h 93 % 0.00 in /  0 mm 0 W/m2
03:20 34.6 °F /  1.4 °C 32.8 °F /  0.4 °C 30.37 in /  1028.3 hPa NW 4.0 mph /  6.4 km/h 4.0 mph /  6.4 km/h 93 % 0.00 in /  0 mm 0 W/m2
03:25 34.5 °F /  1.4 °C 32.7 °F /  0.4 °C 30.37 in /  1028.3 hPa WNW 4.0 mph /  6.4 km/h 10.0 mph /  16.1 km/h 93 % 0.00 in /  0 mm 0 W/m2
03:30 34.4 °F /  1.3 °C 32.6 °F /  0.3 °C 30.37 in /  1028.3 hPa NW 4.0 mph /  6.4 km/h 10.0 mph /  16.1 km/h 93 % 0.00 in /  0 mm 0 W/m2
03:35 34.2 °F /  1.2 °C 32.4 °F /  0.2 °C 30.37 in /  1028.3 hPa NW 4.0 mph /  6.4 km/h 10.0 mph /  16.1 km/h 93 % 0.00 in /  0 mm 0 W/m2
03:40 34.1 °F /  1.2 °C 32.3 °F /  0.2 °C 30.38 in /  1028.7 hPa NW 4.0 mph /  6.4 km/h 10.0 mph /  16.1 km/h 93 % 0.00 in /  0 mm 0 W/m2
03:45 34.0 °F /  1.1 °C 32.2 °F /  0.1 °C 30.38 in /  1028.7 hPa NW 3.0 mph /  4.8 km/h 10.0 mph /  16.1 km/h 93 % 0.00 in /  0 mm 0 W/m2
03:50 34.0 °F /  1.1 °C 32.2 °F /  0.1 °C 30.38 in /  1028.7 hPa WNW 4.0 mph /  6.4 km/h 4.0 mph /  6.4 km/h 93 % 0.00 in /  0 mm 0 W/m2
04:00 34.2 °F /  1.2 °C 32.7 °F /  0.4 °C 30.38 in /  1028.7 hPa NW 5.0 mph /  8 km/h 10.0 mph /  16.1 km/h 94 % 0.00 in /  0 mm 0 W/m2
04:05 34.5 °F /  1.4 °C 33.0 °F /  0.6 °C 30.38 in /  1028.7 hPa NW 6.0 mph /  9.7 km/h 10.0 mph /  16.1 km/h 94 % 0.00 in /  0 mm 0 W/m2
04:10 34.7 °F /  1.5 °C 33.2 °F /  0.7 °C 30.38 in /  1028.7 hPa NNW 6.0 mph /  9.7 km/h 10.0 mph /  16.1 km/h 94 % 0.00 in /  0 mm 0 W/m2
04:15 34.8 °F /  1.6 °C 33.0 °F /  0.6 °C 30.39 in /  1029 hPa NW 4.0 mph /  6.4 km/h 10.0 mph /  16.1 km/h 93 % 0.00 in /  0 mm 0 W/m2
04:20 34.7 °F /  1.5 °C 32.9 °F /  0.5 °C 30.38 in /  1028.7 hPa NW 3.0 mph /  4.8 km/h 10.0 mph /  16.1 km/h 93 % 0.00 in /  0 mm 0 W/m2
04:30 34.6 °F /  1.4 °C 32.8 °F /  0.4 °C 30.38 in /  1028.7 hPa NW 4.0 mph /  6.4 km/h 4.0 mph /  6.4 km/h 93 % 0.00 in /  0 mm 0 W/m2
04:35 34.5 °F /  1.4 °C 32.7 °F /  0.4 °C 30.38 in /  1028.7 hPa NNW 3.0 mph /  4.8 km/h 10.0 mph /  16.1 km/h 93 % 0.00 in /  0 mm 0 W/m2
04:40 34.5 °F /  1.4 °C 32.7 °F /  0.4 °C 30.38 in /  1028.7 hPa NW 4.0 mph /  6.4 km/h 4.0 mph /  6.4 km/h 93 % 0.00 in /  0 mm 0 W/m2
04:45 34.5 °F /  1.4 °C 32.7 °F /  0.4 °C 30.38 in /  1028.7 hPa NNW 5.0 mph /  8 km/h 5.0 mph /  8 km/h 93 % 0.00 in /  0 mm 0 W/m2
04:55 34.3 °F /  1.3 °C 32.2 °F /  0.1 °C 30.39 in /  1029 hPa NW 5.0 mph /  8 km/h 10.0 mph /  16.1 km/h 92 % 0.00 in /  0 mm 0 W/m2
05:00 34.2 °F /  1.2 °C 32.1 °F /  0.1 °C 30.40 in /  1029.3 hPa WNW 6.0 mph /  9.7 km/h 10.0 mph /  16.1 km/h 92 % 0.00 in /  0 mm 0 W/m2
05:05 34.0 °F /  1.1 °C 31.9 °F /  -0.1 °C 30.40 in /  1029.3 hPa WNW 6.0 mph /  9.7 km/h 10.0 mph /  16.1 km/h 92 % 0.00 in /  0 mm 0 W/m2
05:10 34.0 °F /  1.1 °C 31.9 °F /  -0.1 °C 30.40 in /  1029.3 hPa NW 6.0 mph /  9.7 km/h 6.0 mph /  9.7 km/h 92 % 0.00 in /  0 mm 0 W/m2
05:20 33.9 °F /  1.1 °C 32.1 °F /  0.1 °C 30.40 in /  1029.3 hPa NW 5.0 mph /  8 km/h 5.0 mph /  8 km/h 93 % 0.00 in /  0 mm 0 W/m2
05:25 33.9 °F /  1.1 °C 32.1 °F /  0.1 °C 30.40 in /  1029.3 hPa NW 5.0 mph /  8 km/h 10.0 mph /  16.1 km/h 93 % 0.00 in /  0 mm 0 W/m2
05:30 33.9 °F /  1.1 °C 32.1 °F /  0.1 °C 30.40 in /  1029.3 hPa NW 5.0 mph /  8 km/h 10.0 mph /  16.1 km/h 93 % 0.00 in /  0 mm 0 W/m2
05:35 34.0 °F /  1.1 °C 32.2 °F /  0.1 °C 30.40 in /  1029.3 hPa NW 4.0 mph /  6.4 km/h 10.0 mph /  16.1 km/h 93 % 0.00 in /  0 mm 0 W/m2
05:40 34.0 °F /  1.1 °C 32.2 °F /  0.1 °C 30.40 in /  1029.3 hPa NW 4.0 mph /  6.4 km/h 10.0 mph /  16.1 km/h 93 % 0.00 in /  0 mm 0 W/m2
05:45 34.2 °F /  1.2 °C 32.4 °F /  0.2 °C 30.40 in /  1029.3 hPa NW 5.0 mph /  8 km/h 10.0 mph /  16.1 km/h 93 % 0.00 in /  0 mm 0 W/m2
05:55 34.5 °F /  1.4 °C 32.4 °F /  0.2 °C 30.40 in /  1029.3 hPa NW 6.0 mph /  9.7 km/h 7.0 mph /  11.3 km/h 92 % 0.00 in /  0 mm 0 W/m2
06:00 34.6 °F /  1.4 °C 32.5 °F /  0.3 °C 30.40 in /  1029.3 hPa NNW 7.0 mph /  11.3 km/h 10.0 mph /  16.1 km/h 92 % 0.00 in /  0 mm 0 W/m2
06:05 34.7 °F /  1.5 °C 32.3 °F /  0.2 °C 30.41 in /  1029.7 hPa NNW 6.0 mph /  9.7 km/h 10.0 mph /  16.1 km/h 91 % 0.00 in /  0 mm 0 W/m2
06:10 34.7 °F /  1.5 °C 32.3 °F /  0.2 °C 30.41 in /  1029.7 hPa NNW 5.0 mph /  8 km/h 5.0 mph /  8 km/h 91 % 0.00 in /  0 mm 0 W/m2
06:15 34.6 °F /  1.4 °C 32.2 °F /  0.1 °C 30.41 in /  1029.7 hPa NNW 5.0 mph /  8 km/h 10.0 mph /  16.1 km/h 91 % 0.00 in /  0 mm 0 W/m2
06:25 34.3 °F /  1.3 °C 31.9 °F /  -0.1 °C 30.40 in /  1029.3 hPa NW 4.0 mph /  6.4 km/h 10.0 mph /  16.1 km/h 91 % 0.00 in /  0 mm 0 W/m2
06:30 34.2 °F /  1.2 °C 31.8 °F /  -0.1 °C 30.40 in /  1029.3 hPa NNW 4.0 mph /  6.4 km/h 10.0 mph /  16.1 km/h 91 % 0.00 in /  0 mm 0 W/m2
06:35 34.0 °F /  1.1 °C 31.6 °F /  -0.2 °C 30.40 in /  1029.3 hPa NW 3.0 mph /  4.8 km/h 10.0 mph /  16.1 km/h 91 % 0.00 in /  0 mm 0 W/m2
06:40 33.8 °F /  1 °C 31.5 °F /  -0.3 °C 30.40 in /  1029.3 hPa NW 3.0 mph /  4.8 km/h 10.0 mph /  16.1 km/h 91 % 0.00 in /  0 mm 0 W/m2
06:45 33.7 °F /  0.9 °C 31.4 °F /  -0.3 °C 30.40 in /  1029.3 hPa NW 4.0 mph /  6.4 km/h 10.0 mph /  16.1 km/h 91 % 0.00 in /  0 mm 0 W/m2
06:50 33.8 °F /  1 °C 31.7 °F /  -0.2 °C 30.40 in /  1029.3 hPa NNW 6.0 mph /  9.7 km/h 6.0 mph /  9.7 km/h 92 % 0.00 in /  0 mm 0 W/m2
06:55 33.9 °F /  1.1 °C 31.6 °F /  -0.2 °C 30.40 in /  1029.3 hPa NW 6.0 mph /  9.7 km/h 10.0 mph /  16.1 km/h 91 % 0.00 in /  0 mm 0 W/m2
07:05 33.9 °F /  1.1 °C 31.6 °F /  -0.2 °C 30.41 in /  1029.7 hPa NNW 4.0 mph /  6.4 km/h 10.0 mph /  16.1 km/h 91 % 0.00 in /  0 mm 0 W/m2
07:10 33.8 °F /  1 °C 31.5 °F /  -0.3 °C 30.40 in /  1029.3 hPa NNW 5.0 mph /  8 km/h 10.0 mph /  16.1 km/h 91 % 0.00 in /  0 mm 0 W/m2
07:15 33.9 °F /  1.1 °C 31.6 °F /  -0.2 °C 30.40 in /  1029.3 hPa NW 5.0 mph /  8 km/h 10.0 mph /  16.1 km/h 91 % 0.00 in /  0 mm 0 W/m2
07:20 34.0 °F /  1.1 °C 31.6 °F /  -0.2 °C 30.40 in /  1029.3 hPa NW 5.0 mph /  8 km/h 5.0 mph /  8 km/h 91 % 0.00 in /  0 mm 0 W/m2
07:25 33.9 °F /  1.1 °C 31.6 °F /  -0.2 °C 30.41 in /  1029.7 hPa WNW 4.0 mph /  6.4 km/h 10.0 mph /  16.1 km/h 91 % 0.00 in /  0 mm 0 W/m2
07:30 33.8 °F /  1 °C 31.2 °F /  -0.4 °C 30.41 in /  1029.7 hPa NW 4.0 mph /  6.4 km/h 10.0 mph /  16.1 km/h 90 % 0.00 in /  0 mm 0 W/m2
07:40 33.5 °F /  0.8 °C 31.2 °F /  -0.4 °C 30.41 in /  1029.7 hPa WNW 5.0 mph /  8 km/h 10.0 mph /  16.1 km/h 91 % 0.00 in /  0 mm 0 W/m2
07:50 33.3 °F /  0.7 °C 31.0 °F /  -0.6 °C 30.42 in /  1030 hPa NW 4.0 mph /  6.4 km/h 10.0 mph /  16.1 km/h 91 % 0.00 in /  0 mm 0 W/m2
07:55 33.3 °F /  0.7 °C 31.0 °F /  -0.6 °C 30.42 in /  1030 hPa NW 4.0 mph /  6.4 km/h 10.0 mph /  16.1 km/h 91 % 0.00 in /  0 mm 0 W/m2
08:00 33.2 °F /  0.7 °C 30.9 °F /  -0.6 °C 30.42 in /  1030 hPa WNW 4.0 mph /  6.4 km/h 10.0 mph /  16.1 km/h 91 % 0.00 in /  0 mm 0 W/m2
08:05 33.0 °F /  0.6 °C 30.7 °F /  -0.7 °C 30.42 in /  1030 hPa WNW 3.0 mph /  4.8 km/h 10.0 mph /  16.1 km/h 91 % 0.00 in /  0 mm 0 W/m2
08:10 32.9 °F /  0.5 °C 30.6 °F /  -0.8 °C 30.42 in /  1030 hPa NW 1.0 mph /  1.6 km/h 10.0 mph /  16.1 km/h 91 % 0.00 in /  0 mm 0 W/m2
08:20 32.7 °F /  0.4 °C 30.4 °F /  -0.9 °C 30.43 in /  1030.4 hPa NW 2.0 mph /  3.2 km/h 10.0 mph /  16.1 km/h 91 % 0.00 in /  0 mm 5 W/m2
08:25 32.6 °F /  0.3 °C 30.5 °F /  -0.8 °C 30.43 in /  1030.4 hPa NW 3.0 mph /  4.8 km/h 10.0 mph /  16.1 km/h 92 % 0.00 in /  0 mm 7 W/m2
08:30 32.6 °F /  0.3 °C 30.5 °F /  -0.8 °C 30.42 in /  1030 hPa NW 3.0 mph /  4.8 km/h 3.0 mph /  4.8 km/h 92 % 0.00 in /  0 mm 9 W/m2
08:35 32.5 °F /  0.3 °C 30.4 °F /  -0.9 °C 30.43 in /  1030.4 hPa NW 3.0 mph /  4.8 km/h 5.0 mph /  8 km/h 92 % 0.00 in /  0 mm 11 W/m2
08:40 32.5 °F /  0.3 °C 30.4 °F /  -0.9 °C 30.43 in /  1030.4 hPa WNW 4.0 mph /  6.4 km/h 4.0 mph /  6.4 km/h 92 % 0.00 in /  0 mm 12 W/m2
08:45 32.5 °F /  0.3 °C 30.4 °F /  -0.9 °C 30.43 in /  1030.4 hPa WNW 4.0 mph /  6.4 km/h 10.0 mph /  16.1 km/h 92 % 0.00 in /  0 mm 14 W/m2
08:55 32.4 °F /  0.2 °C 30.3 °F /  -0.9 °C 30.43 in /  1030.4 hPa WNW 2.0 mph /  3.2 km/h 10.0 mph /  16.1 km/h 92 % 0.00 in /  0 mm 19 W/m2
09:05 32.5 °F /  0.3 °C 30.4 °F /  -0.9 °C 30.43 in /  1030.4 hPa WNW 4.0 mph /  6.4 km/h 4.0 mph /  6.4 km/h 92 % 0.00 in /  0 mm 19 W/m2
09:10 32.6 °F /  0.3 °C 30.5 °F /  -0.8 °C 30.43 in /  1030.4 hPa NW 3.0 mph /  4.8 km/h 10.0 mph /  16.1 km/h 92 % 0.00 in /  0 mm 21 W/m2
09:15 32.7 °F /  0.4 °C 30.6 °F /  -0.8 °C 30.43 in /  1030.4 hPa NW 4.0 mph /  6.4 km/h 10.0 mph /  16.1 km/h 92 % 0.00 in /  0 mm 25 W/m2
09:20 32.9 °F /  0.5 °C 30.8 °F /  -0.7 °C 30.44 in /  1030.7 hPa WNW 5.0 mph /  8 km/h 10.0 mph /  16.1 km/h 92 % 0.00 in /  0 mm 28 W/m2
09:30 33.4 °F /  0.8 °C 31.1 °F /  -0.5 °C 30.43 in /  1030.4 hPa NW 6.0 mph /  9.7 km/h 6.0 mph /  9.7 km/h 91 % 0.00 in /  0 mm 90 W/m2
09:35 33.7 °F /  0.9 °C 31.4 °F /  -0.3 °C 30.44 in /  1030.7 hPa WNW 6.0 mph /  9.7 km/h 10.0 mph /  16.1 km/h 91 % 0.00 in /  0 mm 109 W/m2
09:40 33.9 °F /  1.1 °C 31.3 °F /  -0.4 °C 30.44 in /  1030.7 hPa WNW 6.0 mph /  9.7 km/h 11.0 mph /  17.7 km/h 90 % 0.00 in /  0 mm 123 W/m2
09:45 34.3 °F /  1.3 °C 31.7 °F /  -0.2 °C 30.44 in /  1030.7 hPa NNW 7.0 mph /  11.3 km/h 11.0 mph /  17.7 km/h 90 % 0.00 in /  0 mm 127 W/m2
09:50 34.8 °F /  1.6 °C 31.9 °F /  -0.1 °C 30.44 in /  1030.7 hPa NW 7.0 mph /  11.3 km/h 7.0 mph /  11.3 km/h 89 % 0.00 in /  0 mm 134 W/m2
09:55 35.3 °F /  1.8 °C 32.1 °F /  0.1 °C 30.44 in /  1030.7 hPa WNW 7.0 mph /  11.3 km/h 10.0 mph /  16.1 km/h 88 % 0.00 in /  0 mm 141 W/m2
10:00 35.9 °F /  2.2 °C 32.4 °F /  0.2 °C 30.44 in /  1030.7 hPa WNW 8.0 mph /  12.9 km/h 10.0 mph /  16.1 km/h 87 % 0.00 in /  0 mm 149 W/m2
10:05 36.3 °F /  2.4 °C 32.2 °F /  0.1 °C 30.44 in /  1030.7 hPa WNW 9.0 mph /  14.5 km/h 10.0 mph /  16.1 km/h 85 % 0.00 in /  0 mm 156 W/m2
10:10 36.7 °F /  2.6 °C 32.3 °F /  0.2 °C 30.43 in /  1030.4 hPa NW 8.0 mph /  12.9 km/h 8.0 mph /  12.9 km/h 84 % 0.00 in /  0 mm 162 W/m2
10:20 37.3 °F /  2.9 °C 32.6 °F /  0.3 °C 30.44 in /  1030.7 hPa WNW 7.0 mph /  11.3 km/h 7.0 mph /  11.3 km/h 83 % 0.00 in /  0 mm 174 W/m2
10:25 37.5 °F /  3.1 °C 32.2 °F /  0.1 °C 30.44 in /  1030.7 hPa WNW 7.0 mph /  11.3 km/h 10.0 mph /  16.1 km/h 81 % 0.00 in /  0 mm 181 W/m2
10:30 37.8 °F /  3.2 °C 32.2 °F /  0.1 °C 30.44 in /  1030.7 hPa NW 7.0 mph /  11.3 km/h 7.0 mph /  11.3 km/h 80 % 0.00 in /  0 mm 186 W/m2
10:35 38.0 °F /  3.3 °C 32.4 °F /  0.2 °C 30.44 in /  1030.7 hPa WNW 8.0 mph /  12.9 km/h 8.0 mph /  12.9 km/h 80 % 0.00 in /  0 mm 192 W/m2
10:40 38.3 °F /  3.5 °C 32.4 °F /  0.2 °C 30.44 in /  1030.7 hPa West 7.0 mph /  11.3 km/h 7.0 mph /  11.3 km/h 79 % 0.00 in /  0 mm 197 W/m2
10:45 38.5 °F /  3.6 °C 32.6 °F /  0.3 °C 30.44 in /  1030.7 hPa WNW 6.0 mph /  9.7 km/h 10.0 mph /  16.1 km/h 79 % 0.00 in /  0 mm 202 W/m2
10:50 38.6 °F /  3.7 °C 32.3 °F /  0.2 °C 30.43 in /  1030.4 hPa NW 7.0 mph /  11.3 km/h 7.0 mph /  11.3 km/h 78 % 0.00 in /  0 mm 207 W/m2
11:00 39.0 °F /  3.9 °C 32.7 °F /  0.4 °C 30.44 in /  1030.7 hPa WNW 6.0 mph /  9.7 km/h 10.0 mph /  16.1 km/h 78 % 0.00 in /  0 mm 216 W/m2
11:10 39.3 °F /  4.1 °C 32.7 °F /  0.4 °C 30.43 in /  1030.4 hPa NW 7.0 mph /  11.3 km/h 10.0 mph /  16.1 km/h 77 % 0.00 in /  0 mm 221 W/m2
11:15 39.5 °F /  4.2 °C 32.6 °F /  0.3 °C 30.43 in /  1030.4 hPa WNW 7.0 mph /  11.3 km/h 10.0 mph /  16.1 km/h 76 % 0.00 in /  0 mm 225 W/m2
11:20 39.6 °F /  4.2 °C 32.3 °F /  0.2 °C 30.43 in /  1030.4 hPa NW 7.0 mph /  11.3 km/h 7.0 mph /  11.3 km/h 75 % 0.00 in /  0 mm 227 W/m2
11:25 39.7 °F /  4.3 °C 32.4 °F /  0.2 °C 30.43 in /  1030.4 hPa WNW 7.0 mph /  11.3 km/h 9.0 mph /  14.5 km/h 75 % 0.00 in /  0 mm 229 W/m2
11:35 39.6 °F /  4.2 °C 32.0 °F /  0 °C 30.42 in /  1030 hPa WNW 8.0 mph /  12.9 km/h 10.0 mph /  16.1 km/h 74 % 0.00 in /  0 mm 236 W/m2
11:40 39.6 °F /  4.2 °C 32.0 °F /  0 °C 30.42 in /  1030 hPa WNW 9.0 mph /  14.5 km/h 9.0 mph /  14.5 km/h 74 % 0.00 in /  0 mm 237 W/m2
11:45 39.8 °F /  4.3 °C 32.2 °F /  0.1 °C 30.42 in /  1030 hPa WNW 9.0 mph /  14.5 km/h 10.0 mph /  16.1 km/h 74 % 0.00 in /  0 mm 237 W/m2
11:50 39.8 °F /  4.3 °C 32.2 °F /  0.1 °C 30.42 in /  1030 hPa NNW 9.0 mph /  14.5 km/h 9.0 mph /  14.5 km/h 74 % 0.00 in /  0 mm 237 W/m2
11:55 39.9 °F /  4.4 °C 32.3 °F /  0.2 °C 30.42 in /  1030 hPa WNW 9.0 mph /  14.5 km/h 12.0 mph /  19.3 km/h 74 % 0.00 in /  0 mm 237 W/m2
12:00 39.9 °F /  4.4 °C 31.9 °F /  -0.1 °C 30.42 in /  1030 hPa NW 9.0 mph /  14.5 km/h 9.0 mph /  14.5 km/h 73 % 0.00 in /  0 mm 239 W/m2
12:10 40.3 °F /  4.6 °C 32.7 °F /  0.4 °C 30.41 in /  1029.7 hPa NW 7.0 mph /  11.3 km/h 7.0 mph /  11.3 km/h 74 % 0.00 in /  0 mm 239 W/m2
12:15 40.4 °F /  4.7 °C 32.8 °F /  0.4 °C 30.42 in /  1030 hPa NW 8.0 mph /  12.9 km/h 12.0 mph /  19.3 km/h 74 % 0.00 in /  0 mm 241 W/m2
12:20 40.4 °F /  4.7 °C 32.4 °F /  0.2 °C 30.41 in /  1029.7 hPa NNW 9.0 mph /  14.5 km/h 9.0 mph /  14.5 km/h 73 % 0.00 in /  0 mm 239 W/m2
12:25 40.5 °F /  4.7 °C 32.5 °F /  0.3 °C 30.41 in /  1029.7 hPa NW 9.0 mph /  14.5 km/h 12.0 mph /  19.3 km/h 73 % 0.00 in /  0 mm 239 W/m2
12:30 40.4 °F /  4.7 °C 32.1 °F /  0.1 °C 30.41 in /  1029.7 hPa NW 9.0 mph /  14.5 km/h 11.0 mph /  17.7 km/h 72 % 0.00 in /  0 mm 239 W/m2
12:35 40.5 °F /  4.7 °C 32.2 °F /  0.1 °C 30.41 in /  1029.7 hPa NW 10.0 mph /  16.1 km/h 11.0 mph /  17.7 km/h 72 % 0.00 in /  0 mm 237 W/m2
12:40 40.6 °F /  4.8 °C 31.9 °F /  -0.1 °C 30.41 in /  1029.7 hPa NW 10.0 mph /  16.1 km/h 12.0 mph /  19.3 km/h 71 % 0.00 in /  0 mm 236 W/m2
12:45 40.6 °F /  4.8 °C 31.6 °F /  -0.2 °C 30.41 in /  1029.7 hPa WNW 10.0 mph /  16.1 km/h 12.0 mph /  19.3 km/h 70 % 0.00 in /  0 mm 234 W/m2
12:55 40.8 °F /  4.9 °C 32.1 °F /  0.1 °C 30.42 in /  1030 hPa NW 7.0 mph /  11.3 km/h 10.0 mph /  16.1 km/h 71 % 0.00 in /  0 mm 229 W/m2
13:00 40.9 °F /  4.9 °C 31.9 °F /  -0.1 °C 30.41 in /  1029.7 hPa NNW 7.0 mph /  11.3 km/h 10.0 mph /  16.1 km/h 70 % 0.00 in /  0 mm 225 W/m2
13:05 40.9 °F /  4.9 °C 32.2 °F /  0.1 °C 30.41 in /  1029.7 hPa NNW 8.0 mph /  12.9 km/h 11.0 mph /  17.7 km/h 71 % 0.00 in /  0 mm 220 W/m2
13:10 40.7 °F /  4.8 °C 31.7 °F /  -0.2 °C 30.41 in /  1029.7 hPa NW 9.0 mph /  14.5 km/h 9.0 mph /  14.5 km/h 70 % 0.00 in /  0 mm 216 W/m2
13:15 40.6 °F /  4.8 °C 31.9 °F /  -0.1 °C 30.41 in /  1029.7 hPa SW 9.0 mph /  14.5 km/h 10.0 mph /  16.1 km/h 71 % 0.00 in /  0 mm 211 W/m2
13:20 40.7 °F /  4.8 °C 32.0 °F /  0 °C 30.41 in /  1029.7 hPa WNW 9.0 mph /  14.5 km/h 9.0 mph /  14.5 km/h 71 % 0.00 in /  0 mm 209 W/m2
13:25 40.8 °F /  4.9 °C 31.8 °F /  -0.1 °C 30.41 in /  1029.7 hPa WNW 8.0 mph /  12.9 km/h 10.0 mph /  16.1 km/h 70 % 0.00 in /  0 mm 204 W/m2
13:35 40.7 °F /  4.8 °C 31.7 °F /  -0.2 °C 30.41 in /  1029.7 hPa NW 9.0 mph /  14.5 km/h 10.0 mph /  16.1 km/h 70 % 0.00 in /  0 mm 195 W/m2
13:40 40.7 °F /  4.8 °C 32.0 °F /  0 °C 30.41 in /  1029.7 hPa WNW 8.0 mph /  12.9 km/h 10.0 mph /  16.1 km/h 71 % 0.00 in /  0 mm 190 W/m2
13:45 40.7 °F /  4.8 °C 32.0 °F /  0 °C 30.41 in /  1029.7 hPa NW 8.0 mph /  12.9 km/h 10.0 mph /  16.1 km/h 71 % 0.00 in /  0 mm 185 W/m2
13:50 40.7 °F /  4.8 °C 32.0 °F /  0 °C 30.41 in /  1029.7 hPa NW 9.0 mph /  14.5 km/h 13.0 mph /  20.9 km/h 71 % 0.00 in /  0 mm 178 W/m2
13:55 40.8 °F /  4.9 °C 32.1 °F /  0.1 °C 30.41 in /  1029.7 hPa NW 8.0 mph /  12.9 km/h 13.0 mph /  20.9 km/h 71 % 0.00 in /  0 mm 172 W/m2
14:05 41.0 °F /  5 °C 32.3 °F /  0.2 °C 30.40 in /  1029.3 hPa WNW 8.0 mph /  12.9 km/h 10.0 mph /  16.1 km/h 71 % 0.00 in /  0 mm 158 W/m2
14:10 41.1 °F /  5.1 °C 32.4 °F /  0.2 °C 30.40 in /  1029.3 hPa NW 8.0 mph /  12.9 km/h 8.0 mph /  12.9 km/h 71 % 0.00 in /  0 mm 151 W/m2
14:15 41.2 °F /  5.1 °C 32.5 °F /  0.3 °C 30.40 in /  1029.3 hPa WNW 7.0 mph /  11.3 km/h 10.0 mph /  16.1 km/h 71 % 0.00 in /  0 mm 142 W/m2
14:20 41.3 °F /  5.2 °C 32.6 °F /  0.3 °C 30.40 in /  1029.3 hPa WNW 6.0 mph /  9.7 km/h 10.0 mph /  16.1 km/h 71 % 0.00 in /  0 mm 137 W/m2
14:25 41.4 °F /  5.2 °C 32.3 °F /  0.2 °C 30.40 in /  1029.3 hPa NW 5.0 mph /  8 km/h 10.0 mph /  16.1 km/h 70 % 0.00 in /  0 mm 128 W/m2
14:30 41.5 °F /  5.3 °C 32.4 °F /  0.2 °C 30.40 in /  1029.3 hPa West 5.0 mph /  8 km/h 10.0 mph /  16.1 km/h 70 % 0.00 in /  0 mm 121 W/m2
14:40 41.4 °F /  5.2 °C 32.3 °F /  0.2 °C 30.41 in /  1029.7 hPa NW 5.0 mph /  8 km/h 10.0 mph /  16.1 km/h 70 % 0.00 in /  0 mm 104 W/m2
14:45 41.3 °F /  5.2 °C 32.2 °F /  0.1 °C 30.40 in /  1029.3 hPa WNW 5.0 mph /  8 km/h 10.0 mph /  16.1 km/h 70 % 0.00 in /  0 mm 97 W/m2
14:50 41.1 °F /  5.1 °C 32.1 °F /  0.1 °C 30.40 in /  1029.3 hPa NW 6.0 mph /  9.7 km/h 10.0 mph /  16.1 km/h 70 % 0.00 in /  0 mm 88 W/m2
14:55 40.8 °F /  4.9 °C 31.8 °F /  -0.1 °C 30.40 in /  1029.3 hPa WNW 6.0 mph /  9.7 km/h 10.0 mph /  16.1 km/h 70 % 0.00 in /  0 mm 81 W/m2
15:00 40.4 °F /  4.7 °C 31.4 °F /  -0.3 °C 30.40 in /  1029.3 hPa WNW 6.0 mph /  9.7 km/h 6.0 mph /  9.7 km/h 70 % 0.00 in /  0 mm 70 W/m2
15:05 40.0 °F /  4.4 °C 31.0 °F /  -0.6 °C 30.40 in /  1029.3 hPa NW 6.0 mph /  9.7 km/h 10.0 mph /  16.1 km/h 70 % 0.00 in /  0 mm 54 W/m2
15:15 39.4 °F /  4.1 °C 30.8 °F /  -0.7 °C 30.40 in /  1029.3 hPa WNW 6.0 mph /  9.7 km/h 10.0 mph /  16.1 km/h 71 % 0.00 in /  0 mm 19 W/m2
15:20 39.2 °F /  4 °C 30.9 °F /  -0.6 °C 30.40 in /  1029.3 hPa NW 5.0 mph /  8 km/h 5.0 mph /  8 km/h 72 % 0.00 in /  0 mm 18 W/m2
15:25 38.9 °F /  3.8 °C 30.6 °F /  -0.8 °C 30.40 in /  1029.3 hPa NW 5.0 mph /  8 km/h 10.0 mph /  16.1 km/h 72 % 0.00 in /  0 mm 16 W/m2
15:30 38.7 °F /  3.7 °C 30.8 °F /  -0.7 °C 30.40 in /  1029.3 hPa WNW 5.0 mph /  8 km/h 5.0 mph /  8 km/h 73 % 0.00 in /  0 mm 14 W/m2
15:40 38.4 °F /  3.6 °C 30.8 °F /  -0.7 °C 30.40 in /  1029.3 hPa WNW 3.0 mph /  4.8 km/h 10.0 mph /  16.1 km/h 74 % 0.00 in /  0 mm 12 W/m2
15:45 38.1 °F /  3.4 °C 30.5 °F /  -0.8 °C 30.40 in /  1029.3 hPa WNW 4.0 mph /  6.4 km/h 10.0 mph /  16.1 km/h 74 % 0.00 in /  0 mm 11 W/m2
15:50 37.9 °F /  3.3 °C 30.4 °F /  -0.9 °C 30.40 in /  1029.3 hPa WNW 5.0 mph /  8 km/h 5.0 mph /  8 km/h 74 % 0.00 in /  0 mm 9 W/m2
15:55 37.6 °F /  3.1 °C 30.4 °F /  -0.9 °C 30.41 in /  1029.7 hPa NW 5.0 mph /  8 km/h 10.0 mph /  16.1 km/h 75 % 0.00 in /  0 mm 7 W/m2
16:00 37.4 °F /  3 °C 30.5 °F /  -0.8 °C 30.41 in /  1029.7 hPa WNW 4.0 mph /  6.4 km/h 10.0 mph /  16.1 km/h 76 % 0.00 in /  0 mm 5 W/m2
16:10 37.0 °F /  2.8 °C 30.5 °F /  -0.8 °C 30.40 in /  1029.3 hPa WNW 6.0 mph /  9.7 km/h 10.0 mph /  16.1 km/h 77 % 0.00 in /  0 mm 0 W/m2
16:15 36.8 °F /  2.7 °C 30.3 °F /  -0.9 °C 30.40 in /  1029.3 hPa WNW 6.0 mph /  9.7 km/h 10.0 mph /  16.1 km/h 77 % 0.00 in /  0 mm 0 W/m2
16:20 36.6 °F /  2.6 °C 30.1 °F /  -1.1 °C 30.40 in /  1029.3 hPa NW 5.0 mph /  8 km/h 10.0 mph /  16.1 km/h 77 % 0.00 in /  0 mm 0 W/m2
16:25 36.4 °F /  2.4 °C 30.2 °F /  -1 °C 30.40 in /  1029.3 hPa WNW 6.0 mph /  9.7 km/h 10.0 mph /  16.1 km/h 78 % 0.00 in /  0 mm 0 W/m2
16:30 36.2 °F /  2.3 °C 30.0 °F /  -1.1 °C 30.41 in /  1029.7 hPa NW 6.0 mph /  9.7 km/h 6.0 mph /  9.7 km/h 78 % 0.00 in /  0 mm 0 W/m2
16:35 36.1 °F /  2.3 °C 30.2 °F /  -1 °C 30.40 in /  1029.3 hPa NW 6.0 mph /  9.7 km/h 10.0 mph /  16.1 km/h 79 % 0.00 in /  0 mm 0 W/m2
16:45 36.0 °F /  2.2 °C 30.1 °F /  -1.1 °C 30.41 in /  1029.7 hPa NW 6.0 mph /  9.7 km/h 10.0 mph /  16.1 km/h 79 % 0.00 in /  0 mm 0 W/m2
16:50 35.8 °F /  2.1 °C 29.9 °F /  -1.2 °C 30.41 in /  1029.7 hPa NW 6.0 mph /  9.7 km/h 6.0 mph /  9.7 km/h 79 % 0.00 in /  0 mm 0 W/m2
16:55 35.6 °F /  2 °C 30.0 °F /  -1.1 °C 30.40 in /  1029.3 hPa WNW 5.0 mph /  8 km/h 10.0 mph /  16.1 km/h 80 % 0.00 in /  0 mm 0 W/m2
17:00 35.4 °F /  1.9 °C 29.8 °F /  -1.2 °C 30.41 in /  1029.7 hPa WNW 5.0 mph /  8 km/h 5.0 mph /  8 km/h 80 % 0.00 in /  0 mm 0 W/m2
17:10 35.1 °F /  1.7 °C 29.9 °F /  -1.2 °C 30.41 in /  1029.7 hPa NW 5.0 mph /  8 km/h 5.0 mph /  8 km/h 81 % 0.00 in /  0 mm 0 W/m2
17:15 35.0 °F /  1.7 °C 29.8 °F /  -1.2 °C 30.41 in /  1029.7 hPa WNW 6.0 mph /  9.7 km/h 7.0 mph /  11.3 km/h 81 % 0.00 in /  0 mm 0 W/m2
17:20 34.9 °F /  1.6 °C 30.0 °F /  -1.1 °C 30.41 in /  1029.7 hPa NW 6.0 mph /  9.7 km/h 6.0 mph /  9.7 km/h 82 % 0.00 in /  0 mm 0 W/m2
17:25 34.8 °F /  1.6 °C 29.9 °F /  -1.2 °C 30.41 in /  1029.7 hPa WNW 6.0 mph /  9.7 km/h 10.0 mph /  16.1 km/h 82 % 0.00 in /  0 mm 0 W/m2
17:30 34.8 °F /  1.6 °C 29.9 °F /  -1.2 °C 30.40 in /  1029.3 hPa WNW 6.0 mph /  9.7 km/h 6.0 mph /  9.7 km/h 82 % 0.00 in /  0 mm 0 W/m2
17:40 34.7 °F /  1.5 °C 30.1 °F /  -1.1 °C 30.40 in /  1029.3 hPa WNW 5.0 mph /  8 km/h 10.0 mph /  16.1 km/h 83 % 0.00 in /  0 mm 0 W/m2
17:45 34.7 °F /  1.5 °C 30.1 °F /  -1.1 °C 30.40 in /  1029.3 hPa WNW 5.0 mph /  8 km/h 10.0 mph /  16.1 km/h 83 % 0.00 in /  0 mm 0 W/m2
17:50 34.7 °F /  1.5 °C 30.1 °F /  -1.1 °C 30.40 in /  1029.3 hPa WNW 5.0 mph /  8 km/h 10.0 mph /  16.1 km/h 83 % 0.00 in /  0 mm 0 W/m2
17:55 34.7 °F /  1.5 °C 30.1 °F /  -1.1 °C 30.40 in /  1029.3 hPa NW 6.0 mph /  9.7 km/h 10.0 mph /  16.1 km/h 83 % 0.00 in /  0 mm 0 W/m2
18:00 34.8 °F /  1.6 °C 30.2 °F /  -1 °C 30.40 in /  1029.3 hPa WNW 6.0 mph /  9.7 km/h 10.0 mph /  16.1 km/h 83 % 0.00 in /  0 mm 0 W/m2
18:05 34.8 °F /  1.6 °C 30.2 °F /  -1 °C 30.40 in /  1029.3 hPa WNW 6.0 mph /  9.7 km/h 10.0 mph /  16.1 km/h 83 % 0.00 in /  0 mm 0 W/m2
18:15 34.7 °F /  1.5 °C 30.1 °F /  -1.1 °C 30.40 in /  1029.3 hPa WNW 5.0 mph /  8 km/h 10.0 mph /  16.1 km/h 83 % 0.00 in /  0 mm 0 W/m2
18:20 34.6 °F /  1.4 °C 30.0 °F /  -1.1 °C 30.39 in /  1029 hPa WNW 5.0 mph /  8 km/h 10.0 mph /  16.1 km/h 83 % 0.00 in /  0 mm 0 W/m2
18:25 34.6 °F /  1.4 °C 30.0 °F /  -1.1 °C 30.40 in /  1029.3 hPa WNW 5.0 mph /  8 km/h 10.0 mph /  16.1 km/h 83 % 0.00 in /  0 mm 0 W/m2
18:30 34.5 °F /  1.4 °C 29.9 °F /  -1.2 °C 30.39 in /  1029 hPa WNW 5.0 mph /  8 km/h 5.0 mph /  8 km/h 83 % 0.00 in /  0 mm 0 W/m2
18:35 34.5 °F /  1.4 °C 29.9 °F /  -1.2 °C 30.40 in /  1029.3 hPa WNW 6.0 mph /  9.7 km/h 6.0 mph /  9.7 km/h 83 % 0.00 in /  0 mm 0 W/m2
18:40 34.5 °F /  1.4 °C 29.9 °F /  -1.2 °C 30.40 in /  1029.3 hPa WNW 6.0 mph /  9.7 km/h 6.0 mph /  9.7 km/h 83 % 0.00 in /  0 mm 0 W/m2
18:50 34.6 °F /  1.4 °C 29.7 °F /  -1.3 °C 30.40 in /  1029.3 hPa WNW 5.0 mph /  8 km/h 10.0 mph /  16.1 km/h 82 % 0.00 in /  0 mm 0 W/m2
18:55 34.6 °F /  1.4 °C 29.7 °F /  -1.3 °C 30.40 in /  1029.3 hPa WNW 4.0 mph /  6.4 km/h 10.0 mph /  16.1 km/h 82 % 0.00 in /  0 mm 0 W/m2
19:00 34.4 °F /  1.3 °C 29.5 °F /  -1.4 °C 30.39 in /  1029 hPa WNW 3.0 mph /  4.8 km/h 10.0 mph /  16.1 km/h 82 % 0.00 in /  0 mm 0 W/m2
19:05 34.3 °F /  1.3 °C 29.4 °F /  -1.4 °C 30.39 in /  1029 hPa WNW 2.0 mph /  3.2 km/h 10.0 mph /  16.1 km/h 82 % 0.00 in /  0 mm 0 W/m2
19:10 34.1 °F /  1.2 °C 29.2 °F /  -1.6 °C 30.39 in /  1029 hPa WNW 2.0 mph /  3.2 km/h 10.0 mph /  16.1 km/h 82 % 0.00 in /  0 mm 0 W/m2
19:15 33.9 °F /  1.1 °C 29.3 °F /  -1.5 °C 30.39 in /  1029 hPa WNW 1.0 mph /  1.6 km/h 10.0 mph /  16.1 km/h 83 % 0.00 in /  0 mm 0 W/m2
19:20 33.7 °F /  0.9 °C 29.1 °F /  -1.6 °C 30.40 in /  1029.3 hPa WNW 2.0 mph /  3.2 km/h 10.0 mph /  16.1 km/h 83 % 0.00 in /  0 mm 0 W/m2
19:30 33.7 °F /  0.9 °C 29.4 °F /  -1.4 °C 30.39 in /  1029 hPa WNW 5.0 mph /  8 km/h 10.0 mph /  16.1 km/h 84 % 0.00 in /  0 mm 0 W/m2
19:40 33.9 °F /  1.1 °C 29.6 °F /  -1.3 °C 30.39 in /  1029 hPa WNW 5.0 mph /  8 km/h 10.0 mph /  16.1 km/h 84 % 0.00 in /  0 mm 0 W/m2
19:45 33.9 °F /  1.1 °C 29.6 °F /  -1.3 °C 30.40 in /  1029.3 hPa WNW 5.0 mph /  8 km/h 10.0 mph /  16.1 km/h 84 % 0.00 in /  0 mm 0 W/m2
19:50 33.9 °F /  1.1 °C 29.9 °F /  -1.2 °C 30.40 in /  1029.3 hPa WNW 5.0 mph /  8 km/h 5.0 mph /  8 km/h 85 % 0.00 in /  0 mm 0 W/m2
19:55 34.0 °F /  1.1 °C 30.0 °F /  -1.1 °C 30.40 in /  1029.3 hPa WNW 5.0 mph /  8 km/h 10.0 mph /  16.1 km/h 85 % 0.00 in /  0 mm 0 W/m2
20:05 34.1 °F /  1.2 °C 30.1 °F /  -1.1 °C 30.40 in /  1029.3 hPa WNW 5.0 mph /  8 km/h 10.0 mph /  16.1 km/h 85 % 0.00 in /  0 mm 0 W/m2
20:10 34.1 °F /  1.2 °C 30.1 °F /  -1.1 °C 30.40 in /  1029.3 hPa WNW 5.0 mph /  8 km/h 10.0 mph /  16.1 km/h 85 % 0.00 in /  0 mm 0 W/m2
20:15 34.2 °F /  1.2 °C 30.4 °F /  -0.9 °C 30.40 in /  1029.3 hPa NW 5.0 mph /  8 km/h 10.0 mph /  16.1 km/h 86 % 0.00 in /  0 mm 0 W/m2
20:20 34.2 °F /  1.2 °C 30.4 °F /  -0.9 °C 30.39 in /  1029 hPa WNW 6.0 mph /  9.7 km/h 10.0 mph /  16.1 km/h 86 % 0.00 in /  0 mm 0 W/m2
20:25 34.3 °F /  1.3 °C 30.5 °F /  -0.8 °C 30.40 in /  1029.3 hPa WNW 6.0 mph /  9.7 km/h 10.0 mph /  16.1 km/h 86 % 0.00 in /  0 mm 0 W/m2
20:30 34.5 °F /  1.4 °C 30.7 °F /  -0.7 °C 30.39 in /  1029 hPa NW 6.0 mph /  9.7 km/h 10.0 mph /  16.1 km/h 86 % 0.00 in /  0 mm 0 W/m2
20:40 34.9 °F /  1.6 °C 31.1 °F /  -0.5 °C 30.39 in /  1029 hPa WNW 7.0 mph /  11.3 km/h 7.0 mph /  11.3 km/h 86 % 0.00 in /  0 mm 0 W/m2
20:45 35.0 °F /  1.7 °C 31.2 °F /  -0.4 °C 30.39 in /  1029 hPa WNW 7.0 mph /  11.3 km/h 10.0 mph /  16.1 km/h 86 % 0.00 in /  0 mm 0 W/m2
20:50 35.1 °F /  1.7 °C 31.0 °F /  -0.6 °C 30.39 in /  1029 hPa WNW 7.0 mph /  11.3 km/h 10.0 mph /  16.1 km/h 85 % 0.00 in /  0 mm 0 W/m2
20:55 35.2 °F /  1.8 °C 31.1 °F /  -0.5 °C 30.39 in /  1029 hPa WNW 7.0 mph /  11.3 km/h 10.0 mph /  16.1 km/h 85 % 0.00 in /  0 mm 0 W/m2
21:05 35.2 °F /  1.8 °C 31.1 °F /  -0.5 °C 30.39 in /  1029 hPa West 7.0 mph /  11.3 km/h 9.0 mph /  14.5 km/h 85 % 0.00 in /  0 mm 0 W/m2
21:10 35.2 °F /  1.8 °C 31.1 °F /  -0.5 °C 30.39 in /  1029 hPa NW 8.0 mph /  12.9 km/h 8.0 mph /  12.9 km/h 85 % 0.00 in /  0 mm 0 W/m2
21:15 35.1 °F /  1.7 °C 31.3 °F /  -0.4 °C 30.39 in /  1029 hPa WNW 7.0 mph /  11.3 km/h 10.0 mph /  16.1 km/h 86 % 0.00 in /  0 mm 0 W/m2
21:25 35.2 °F /  1.8 °C 31.4 °F /  -0.3 °C 30.39 in /  1029 hPa NW 8.0 mph /  12.9 km/h 11.0 mph /  17.7 km/h 86 % 0.00 in /  0 mm 0 W/m2
21:30 35.3 °F /  1.8 °C 31.5 °F /  -0.3 °C 30.39 in /  1029 hPa WNW 7.0 mph /  11.3 km/h 10.0 mph /  16.1 km/h 86 % 0.00 in /  0 mm 0 W/m2
21:35 35.3 °F /  1.8 °C 31.5 °F /  -0.3 °C 30.39 in /  1029 hPa WNW 7.0 mph /  11.3 km/h 10.0 mph /  16.1 km/h 86 % 0.00 in /  0 mm 0 W/m2
21:45 35.3 °F /  1.8 °C 31.5 °F /  -0.3 °C 30.39 in /  1029 hPa West 7.0 mph /  11.3 km/h 10.0 mph /  16.1 km/h 86 % 0.00 in /  0 mm 0 W/m2
21:50 35.2 °F /  1.8 °C 31.4 °F /  -0.3 °C 30.38 in /  1028.7 hPa WNW 6.0 mph /  9.7 km/h 6.0 mph /  9.7 km/h 86 % 0.00 in /  0 mm 0 W/m2
21:55 35.1 °F /  1.7 °C 31.3 °F /  -0.4 °C 30.39 in /  1029 hPa WNW 5.0 mph /  8 km/h 10.0 mph /  16.1 km/h 86 % 0.00 in /  0 mm 0 W/m2
22:00 35.0 °F /  1.7 °C 31.2 °F /  -0.4 °C 30.38 in /  1028.7 hPa West 5.0 mph /  8 km/h 5.0 mph /  8 km/h 86 % 0.00 in /  0 mm 0 W/m2
22:05 34.8 °F /  1.6 °C 31.0 °F /  -0.6 °C 30.38 in /  1028.7 hPa West 4.0 mph /  6.4 km/h 10.0 mph /  16.1 km/h 86 % 0.00 in /  0 mm 0 W/m2
22:10 34.7 °F /  1.5 °C 31.2 °F /  -0.4 °C 30.38 in /  1028.7 hPa West 3.0 mph /  4.8 km/h 3.0 mph /  4.8 km/h 87 % 0.00 in /  0 mm 0 W/m2
22:20 34.3 °F /  1.3 °C 30.8 °F /  -0.7 °C 30.38 in /  1028.7 hPa WNW 5.0 mph /  8 km/h 5.0 mph /  8 km/h 87 % 0.00 in /  0 mm 0 W/m2
22:25 34.1 °F /  1.2 °C 30.9 °F /  -0.6 °C 30.38 in /  1028.7 hPa WNW 4.0 mph /  6.4 km/h 10.0 mph /  16.1 km/h 88 % 0.00 in /  0 mm 0 W/m2
22:30 33.9 °F /  1.1 °C 30.7 °F /  -0.7 °C 30.38 in /  1028.7 hPa WNW 3.0 mph /  4.8 km/h 3.0 mph /  4.8 km/h 88 % 0.00 in /  0 mm 0 W/m2
22:35 33.7 °F /  0.9 °C 30.5 °F /  -0.8 °C 30.38 in /  1028.7 hPa WNW 2.0 mph /  3.2 km/h 10.0 mph /  16.1 km/h 88 % 0.00 in /  0 mm 0 W/m2
22:40 33.6 °F /  0.9 °C 30.4 °F /  -0.9 °C 30.38 in /  1028.7 hPa WNW 2.0 mph /  3.2 km/h 10.0 mph /  16.1 km/h 88 % 0.00 in /  0 mm 0 W/m2
22:50 33.2 °F /  0.7 °C 30.0 °F /  -1.1 °C 30.38 in /  1028.7 hPa WNW 3.0 mph /  4.8 km/h 10.0 mph /  16.1 km/h 88 % 0.00 in /  0 mm 0 W/m2
22:55 33.1 °F /  0.6 °C 30.2 °F /  -1 °C 30.38 in /  1028.7 hPa WNW 4.0 mph /  6.4 km/h 10.0 mph /  16.1 km/h 89 % 0.00 in /  0 mm 0 W/m2
23:00 33.1 °F /  0.6 °C 30.5 °F /  -0.8 °C 30.38 in /  1028.7 hPa WNW 5.0 mph /  8 km/h 10.0 mph /  16.1 km/h 90 % 0.00 in /  0 mm 0 W/m2
23:10 33.5 °F /  0.8 °C 31.2 °F /  -0.4 °C 30.38 in /  1028.7 hPa WNW 4.0 mph /  6.4 km/h 4.0 mph /  6.4 km/h 91 % 0.00 in /  0 mm 0 W/m2
23:15 33.6 °F /  0.9 °C 31.0 °F /  -0.6 °C 30.38 in /  1028.7 hPa WNW 4.0 mph /  6.4 km/h 5.0 mph /  8 km/h 90 % 0.00 in /  0 mm 0 W/m2
23:25 33.7 °F /  0.9 °C 31.1 °F /  -0.5 °C 30.38 in /  1028.7 hPa WNW 4.0 mph /  6.4 km/h 10.0 mph /  16.1 km/h 90 % 0.00 in /  0 mm 0 W/m2
23:30 33.8 °F /  1 °C 31.5 °F /  -0.3 °C 30.38 in /  1028.7 hPa WNW 3.0 mph /  4.8 km/h 10.0 mph /  16.1 km/h 91 % 0.00 in /  0 mm 0 W/m2
23:35 34.2 °F /  1.2 °C 31.8 °F /  -0.1 °C 30.38 in /  1028.7 hPa WNW 5.0 mph /  8 km/h 10.0 mph /  16.1 km/h 91 % 0.00 in /  0 mm 0 W/m2
23:40 34.6 °F /  1.4 °C 32.2 °F /  0.1 °C 30.38 in /  1028.7 hPa WNW 7.0 mph /  11.3 km/h 7.0 mph /  11.3 km/h 91 % 0.00 in /  0 mm 0 W/m2
23:45 35.0 °F /  1.7 °C 32.6 °F /  0.3 °C 30.38 in /  1028.7 hPa WNW 5.0 mph /  8 km/h 10.0 mph /  16.1 km/h 91 % 0.00 in /  0 mm 0 W/m2
23:50 35.3 °F /  1.8 °C 32.9 °F /  0.5 °C 30.38 in /  1028.7 hPa NW 5.0 mph /  8 km/h 10.0 mph /  16.1 km/h 91 % 0.00 in /  0 mm 0 W/m2
Delerius-Weather
Compliments of Weather Underground - 2 mb

Data updates at regular intervals.